Coleman, Texas
Current Conditions -  °F | °C
As of 12:35 PM on Thursday 30 Oct 2014 (Local Time) from KCOM Reporting Station
Scattered Clouds Scattered Clouds  
Wind Chill: 73°   Ceiling: Unl
Heat Index: 73°   Visibility: 10mi
Dew Point: 62°   Wind: 3mph
Humidity: 68%   Direction: 210°SSW
Pressure: 30.15"   Gusts: NA
Location:  31.83°N, 99.43°W
Report Text: KCOM 301735Z AUTO 21003KT 10SM SCT017 23/17 A3015 RMK AO2 T02300168
Loading
Personal Weather Stations






























Interactive Weather Map
Tropical Storm Tracking
New forecast layout! Learn more

10-Day Weather Forecast

Advertisements
Track Severe Weather on mobile